Terminal Aerodrome Forecast
Issued by NWS

Current Version | Previous Version | Text Only | Print | Product List | Glossary On
Versions: 1 2 3 4 5 6 7 8 9 10 11 12 13 14 15 16 17 18 19 20 21 22
654
FTAK31 PAJN 062320
TAFAPG
TAF
PAPG 062320Z 0700/0724 VRB03KT P6SM FEW020 BKN035
     FM070300 VRB03KT P6SM SCT035 SCT100
     FM070900 09004KT P6SM VCSH FEW025 BKN045 OVC070
     FM071100 10005KT P6SM -RA BKN035 OVC050
     FM071500 10010KT P6SM -RA BKN025 OVC040
     FM071800 VRB05KT P6SM VCSH SCT025 OVC040
      AMD LTD TO CLD VIS AND WIND 0706/0715=

USA.gov is the U.S. government's official web portal to all federal, state and local government web resources and services.